OCN524 EFHK-ENTC
Flight info
| Callsign | OCN524 |
|---|---|
| Flight time | 1h 36m |
| Altitude | 38000 |
| Route | NEPEK Y361 NISVI DCT GIDKI DCT OGTUD DCT SUTEV DCT RIXEM DCT MANKI |
| Aircraft | A20N/M-SDE2E3FGHIRWXY/LB1 |
Departure
| Time | 2026-04-26 08:11 |
|---|---|
| Airport | Helsinki Vantaa Airport (EFHK) |
Arrival
| Time | 2026-04-26 09:48 |
|---|---|
| Airport | Tromsø Airport (ENTC) |
| Time | Latitude | Longitude | Altitude | Speed | Heading |
|---|---|---|---|---|---|
| 2026-04-26 07:43 | 60.31871 | 24.96543 | 164 ft | 0 kts | 137° |
| 2026-04-26 08:01 | 60.31877 | 24.96533 | 164 ft | 2 kts | 137° |
| 2026-04-26 08:01 | 60.31888 | 24.96513 | 164 ft | 2 kts | 137° |
| 2026-04-26 08:01 | 60.31895 | 24.96499 | 164 ft | 1 kts | 138° |
| 2026-04-26 08:01 | 60.31903 | 24.96475 | 164 ft | 2 kts | 104° |
| 2026-04-26 08:02 | 60.31904 | 24.96446 | 164 ft | 2 kts | 76° |
| 2026-04-26 08:02 | 60.31899 | 24.96421 | 164 ft | 0 kts | 51° |
| 2026-04-26 08:02 | 60.31894 | 24.96412 | 164 ft | 1 kts | 46° |
| 2026-04-26 08:02 | 60.31894 | 24.96411 | 164 ft | 0 kts | 46° |
| 2026-04-26 08:04 | 60.31897 | 24.96419 | 164 ft | 2 kts | 45° |
| 2026-04-26 08:05 | 60.31926 | 24.96480 | 164 ft | 7 kts | 47° |
| 2026-04-26 08:05 | 60.31958 | 24.96549 | 164 ft | 6 kts | 46° |
| 2026-04-26 08:05 | 60.31985 | 24.96608 | 164 ft | 4 kts | 50° |
| 2026-04-26 08:05 | 60.32005 | 24.96655 | 164 ft | 4 kts | 47° |
| 2026-04-26 08:06 | 60.32024 | 24.96696 | 164 ft | 3 kts | 46° |
| 2026-04-26 08:06 | 60.32060 | 24.96774 | 165 ft | 12 kts | 47° |
| 2026-04-26 08:06 | 60.32113 | 24.96887 | 167 ft | 10 kts | 43° |
| 2026-04-26 08:06 | 60.32137 | 24.96994 | 168 ft | 9 kts | 110° |
| 2026-04-26 08:07 | 60.32060 | 24.97099 | 167 ft | 16 kts | 153° |
| 2026-04-26 08:07 | 60.31954 | 24.97209 | 166 ft | 17 kts | 153° |
| 2026-04-26 08:07 | 60.31833 | 24.97333 | 163 ft | 20 kts | 153° |
| 2026-04-26 08:07 | 60.31709 | 24.97462 | 161 ft | 20 kts | 153° |
| 2026-04-26 08:08 | 60.31581 | 24.97594 | 162 ft | 20 kts | 153° |
| 2026-04-26 08:08 | 60.31452 | 24.97727 | 162 ft | 20 kts | 153° |
| 2026-04-26 08:08 | 60.31323 | 24.97861 | 163 ft | 20 kts | 153° |
| 2026-04-26 08:08 | 60.31193 | 24.97996 | 163 ft | 21 kts | 153° |
| 2026-04-26 08:09 | 60.31063 | 24.98129 | 164 ft | 21 kts | 155° |
| 2026-04-26 08:09 | 60.30928 | 24.98247 | 165 ft | 21 kts | 156° |
| 2026-04-26 08:09 | 60.30792 | 24.98366 | 165 ft | 21 kts | 156° |
| 2026-04-26 08:09 | 60.30677 | 24.98493 | 161 ft | 19 kts | 126° |
| 2026-04-26 08:10 | 60.30699 | 24.98734 | 158 ft | 18 kts | 40° |
| 2026-04-26 08:10 | 60.30799 | 24.98734 | 158 ft | 12 kts | 334° |
| 2026-04-26 08:10 | 60.30875 | 24.98662 | 158 ft | 11 kts | 332° |
| 2026-04-26 08:10 | 60.31023 | 24.98507 | 158 ft | 52 kts | 333° |
| 2026-04-26 08:11 | 60.31544 | 24.97976 | 158 ft | 114 kts | 333° |
| 2026-04-26 08:11 | 60.32378 | 24.97121 | 314 ft | 149 kts | 336° |
| 2026-04-26 08:11 | 60.33278 | 24.96204 | 1048 ft | 146 kts | 334° |
| 2026-04-26 08:11 | 60.34144 | 24.95288 | 1923 ft | 140 kts | 335° |
| 2026-04-26 08:12 | 60.34994 | 24.94401 | 2515 ft | 146 kts | 336° |
| 2026-04-26 08:12 | 60.35939 | 24.93459 | 2960 ft | 159 kts | 336° |
| 2026-04-26 08:12 | 60.36966 | 24.92380 | 3401 ft | 175 kts | 336° |
| 2026-04-26 08:12 | 60.38108 | 24.91232 | 3825 ft | 194 kts | 336° |
| 2026-04-26 08:13 | 60.39367 | 24.89926 | 4332 ft | 211 kts | 336° |
| 2026-04-26 08:13 | 60.40689 | 24.88523 | 4915 ft | 225 kts | 336° |
| 2026-04-26 08:13 | 60.42069 | 24.87071 | 5785 ft | 228 kts | 337° |
| 2026-04-26 08:13 | 60.43462 | 24.85518 | 6691 ft | 231 kts | 335° |
| 2026-04-26 08:14 | 60.44844 | 24.83894 | 7554 ft | 234 kts | 335° |
| 2026-04-26 08:14 | 60.46251 | 24.82238 | 8345 ft | 239 kts | 334° |
| 2026-04-26 08:14 | 60.47685 | 24.80540 | 9125 ft | 245 kts | 334° |
| 2026-04-26 08:14 | 60.49158 | 24.78791 | 9909 ft | 250 kts | 334° |
| 2026-04-26 08:15 | 60.50704 | 24.76952 | 10444 ft | 265 kts | 333° |
| 2026-04-26 08:15 | 60.52336 | 24.75012 | 10840 ft | 282 kts | 333° |
| 2026-04-26 08:15 | 60.54065 | 24.72988 | 11379 ft | 293 kts | 337° |
| 2026-04-26 08:15 | 60.55985 | 24.71716 | 12103 ft | 295 kts | 349° |
| 2026-04-26 08:16 | 60.58011 | 24.70921 | 12817 ft | 301 kts | 351° |
| 2026-04-26 08:16 | 60.60075 | 24.70151 | 13473 ft | 307 kts | 351° |
| 2026-04-26 08:16 | 60.62198 | 24.69326 | 14133 ft | 314 kts | 350° |
| 2026-04-26 08:16 | 60.64326 | 24.68467 | 14763 ft | 320 kts | 350° |
| 2026-04-26 08:17 | 60.66527 | 24.67550 | 15422 ft | 325 kts | 350° |
| 2026-04-26 08:17 | 60.68737 | 24.66612 | 16078 ft | 330 kts | 349° |
| 2026-04-26 08:17 | 60.71004 | 24.65639 | 16699 ft | 335 kts | 349° |
| 2026-04-26 08:17 | 60.73287 | 24.64651 | 17321 ft | 341 kts | 349° |
| 2026-04-26 08:18 | 60.75597 | 24.63646 | 17922 ft | 346 kts | 349° |
| 2026-04-26 08:18 | 60.77954 | 24.62615 | 18507 ft | 351 kts | 349° |
| 2026-04-26 08:18 | 60.80371 | 24.61556 | 19069 ft | 356 kts | 349° |
| 2026-04-26 08:18 | 60.82796 | 24.60488 | 19617 ft | 362 kts | 349° |
| 2026-04-26 08:19 | 60.85252 | 24.59409 | 20193 ft | 365 kts | 349° |
| 2026-04-26 08:19 | 60.87761 | 24.58302 | 20796 ft | 368 kts | 349° |
| 2026-04-26 08:19 | 60.90252 | 24.57200 | 21367 ft | 371 kts | 349° |
| 2026-04-26 08:19 | 60.92771 | 24.56083 | 21918 ft | 374 kts | 349° |
| 2026-04-26 08:20 | 60.95334 | 24.54947 | 22461 ft | 378 kts | 349° |
| 2026-04-26 08:20 | 60.97899 | 24.53805 | 23002 ft | 380 kts | 349° |
| 2026-04-26 08:20 | 61.00491 | 24.52653 | 23522 ft | 383 kts | 349° |
| 2026-04-26 08:20 | 61.03062 | 24.51504 | 24034 ft | 386 kts | 349° |
| 2026-04-26 08:21 | 61.05700 | 24.50325 | 24526 ft | 388 kts | 349° |
| 2026-04-26 08:21 | 61.08332 | 24.49145 | 24965 ft | 391 kts | 349° |
| 2026-04-26 08:21 | 61.10985 | 24.47956 | 25361 ft | 393 kts | 349° |
| 2026-04-26 08:21 | 61.13657 | 24.46759 | 25758 ft | 394 kts | 349° |
| 2026-04-26 08:22 | 61.16337 | 24.45555 | 26139 ft | 396 kts | 349° |
| 2026-04-26 08:22 | 61.19030 | 24.44344 | 26512 ft | 397 kts | 349° |
| 2026-04-26 08:22 | 61.21713 | 24.43133 | 26882 ft | 397 kts | 349° |
| 2026-04-26 08:22 | 61.24423 | 24.41908 | 27251 ft | 398 kts | 349° |
| 2026-04-26 08:23 | 61.27119 | 24.40686 | 27593 ft | 399 kts | 349° |
| 2026-04-26 08:23 | 61.29836 | 24.39453 | 27930 ft | 400 kts | 349° |
| 2026-04-26 08:23 | 61.32559 | 24.38215 | 28248 ft | 401 kts | 348° |
| 2026-04-26 08:23 | 61.35252 | 24.36988 | 28555 ft | 402 kts | 348° |
| 2026-04-26 08:24 | 61.38003 | 24.35732 | 28868 ft | 402 kts | 348° |
| 2026-04-26 08:24 | 61.40728 | 24.34485 | 29161 ft | 403 kts | 348° |
| 2026-04-26 08:24 | 61.43456 | 24.33236 | 29448 ft | 404 kts | 348° |
| 2026-04-26 08:24 | 61.46204 | 24.31976 | 29713 ft | 406 kts | 347° |
| 2026-04-26 08:25 | 61.48964 | 24.30707 | 29974 ft | 407 kts | 348° |
| 2026-04-26 08:25 | 61.51722 | 24.29437 | 30238 ft | 408 kts | 347° |
| 2026-04-26 08:25 | 61.54501 | 24.28155 | 30509 ft | 409 kts | 347° |
| 2026-04-26 08:25 | 61.57241 | 24.26890 | 30831 ft | 408 kts | 347° |
| 2026-04-26 08:26 | 61.60029 | 24.25599 | 31154 ft | 407 kts | 347° |
| 2026-04-26 08:26 | 61.62784 | 24.24323 | 31456 ft | 406 kts | 347° |
| 2026-04-26 08:26 | 61.65519 | 24.23052 | 31737 ft | 405 kts | 347° |
| 2026-04-26 08:26 | 61.68263 | 24.21774 | 31995 ft | 405 kts | 347° |
| 2026-04-26 08:27 | 61.70995 | 24.20500 | 32244 ft | 405 kts | 347° |
| 2026-04-26 08:27 | 61.73724 | 24.19224 | 32479 ft | 406 kts | 347° |
| 2026-04-26 08:27 | 61.76495 | 24.17927 | 32704 ft | 406 kts | 347° |
| 2026-04-26 08:27 | 61.79229 | 24.16645 | 32937 ft | 406 kts | 347° |
| 2026-04-26 08:28 | 61.81986 | 24.15350 | 33204 ft | 405 kts | 347° |
| 2026-04-26 08:28 | 61.84706 | 24.14070 | 33476 ft | 405 kts | 347° |
| 2026-04-26 08:28 | 61.87454 | 24.12776 | 33734 ft | 405 kts | 347° |
| 2026-04-26 08:28 | 61.90207 | 24.11475 | 33960 ft | 405 kts | 347° |
| 2026-04-26 08:29 | 61.92940 | 24.10181 | 34176 ft | 406 kts | 347° |
| 2026-04-26 08:29 | 61.95673 | 24.08885 | 34390 ft | 406 kts | 347° |
| 2026-04-26 08:29 | 61.98429 | 24.07577 | 34608 ft | 406 kts | 347° |
| 2026-04-26 08:29 | 62.01178 | 24.06268 | 34803 ft | 406 kts | 347° |
| 2026-04-26 08:30 | 62.03910 | 24.04968 | 34995 ft | 407 kts | 347° |
| 2026-04-26 08:30 | 62.06671 | 24.03649 | 35197 ft | 407 kts | 347° |
| 2026-04-26 08:30 | 62.09420 | 24.02333 | 35382 ft | 407 kts | 347° |
| 2026-04-26 08:30 | 62.12174 | 24.01014 | 35544 ft | 407 kts | 347° |
| 2026-04-26 08:31 | 62.14939 | 23.99685 | 35705 ft | 408 kts | 347° |
| 2026-04-26 08:31 | 62.17672 | 23.98369 | 35858 ft | 408 kts | 347° |
| 2026-04-26 08:31 | 62.20434 | 23.97040 | 36004 ft | 409 kts | 347° |
| 2026-04-26 08:31 | 62.23221 | 23.95693 | 36141 ft | 409 kts | 347° |
| 2026-04-26 08:32 | 62.25971 | 23.94364 | 36270 ft | 410 kts | 347° |
| 2026-04-26 08:32 | 62.28761 | 23.93012 | 36399 ft | 410 kts | 347° |
| 2026-04-26 08:32 | 62.31536 | 23.91664 | 36530 ft | 410 kts | 347° |
| 2026-04-26 08:32 | 62.34304 | 23.90316 | 36655 ft | 410 kts | 347° |
| 2026-04-26 08:33 | 62.37081 | 23.88962 | 36757 ft | 411 kts | 347° |
| 2026-04-26 08:33 | 62.39871 | 23.87598 | 36840 ft | 412 kts | 347° |
| 2026-04-26 08:33 | 62.45424 | 23.84877 | 37012 ft | 414 kts | 347° |
| 2026-04-26 08:34 | 62.51026 | 23.82124 | 37196 ft | 415 kts | 347° |
| 2026-04-26 08:34 | 62.56656 | 23.79346 | 37353 ft | 416 kts | 347° |
| 2026-04-26 08:35 | 62.62284 | 23.76558 | 37529 ft | 417 kts | 347° |
| 2026-04-26 08:35 | 62.67907 | 23.73760 | 37696 ft | 418 kts | 347° |
| 2026-04-26 08:36 | 62.73571 | 23.70930 | 37731 ft | 420 kts | 347° |
| 2026-04-26 08:36 | 62.79259 | 23.68078 | 37739 ft | 420 kts | 347° |
| 2026-04-26 08:37 | 62.84931 | 23.65223 | 37751 ft | 420 kts | 347° |
| 2026-04-26 08:37 | 62.90603 | 23.62357 | 37760 ft | 420 kts | 347° |
| 2026-04-26 08:38 | 62.96285 | 23.59476 | 37762 ft | 419 kts | 347° |
| 2026-04-26 08:38 | 63.01949 | 23.56590 | 37765 ft | 419 kts | 347° |
| 2026-04-26 08:39 | 63.07589 | 23.53705 | 37769 ft | 419 kts | 347° |
| 2026-04-26 08:39 | 63.13251 | 23.50797 | 37768 ft | 420 kts | 347° |
| 2026-04-26 08:40 | 63.18930 | 23.47868 | 37771 ft | 420 kts | 347° |
| 2026-04-26 08:40 | 63.24567 | 23.44950 | 37778 ft | 420 kts | 347° |
| 2026-04-26 08:41 | 63.30269 | 23.41988 | 37774 ft | 420 kts | 347° |
| 2026-04-26 08:41 | 63.35916 | 23.39043 | 37777 ft | 419 kts | 347° |
| 2026-04-26 08:42 | 63.41558 | 23.36088 | 37782 ft | 420 kts | 347° |
| 2026-04-26 08:42 | 63.47230 | 23.33102 | 37781 ft | 420 kts | 346° |
| 2026-04-26 08:43 | 63.52875 | 23.30120 | 37788 ft | 419 kts | 346° |
| 2026-04-26 08:43 | 63.58540 | 23.27115 | 37796 ft | 419 kts | 346° |
| 2026-04-26 08:44 | 63.64194 | 23.24103 | 37808 ft | 420 kts | 346° |
| 2026-04-26 08:44 | 63.69824 | 23.21092 | 37815 ft | 420 kts | 346° |
| 2026-04-26 08:45 | 63.75481 | 23.18057 | 37824 ft | 420 kts | 346° |
| 2026-04-26 08:45 | 63.81139 | 23.15008 | 37832 ft | 420 kts | 346° |
| 2026-04-26 08:46 | 63.86810 | 23.11940 | 37830 ft | 420 kts | 346° |
| 2026-04-26 08:46 | 63.92448 | 23.08875 | 37841 ft | 419 kts | 346° |
| 2026-04-26 08:47 | 63.98129 | 23.05776 | 37840 ft | 420 kts | 346° |
| 2026-04-26 08:47 | 64.03769 | 23.02682 | 37842 ft | 421 kts | 346° |
| 2026-04-26 08:48 | 64.09441 | 22.99556 | 37831 ft | 421 kts | 346° |
| 2026-04-26 08:48 | 64.15136 | 22.96410 | 37830 ft | 421 kts | 346° |
| 2026-04-26 08:49 | 64.20807 | 22.93263 | 37826 ft | 420 kts | 346° |
| 2026-04-26 08:49 | 64.26485 | 22.90100 | 37828 ft | 420 kts | 346° |
| 2026-04-26 08:50 | 64.32172 | 22.86918 | 37828 ft | 420 kts | 346° |
| 2026-04-26 08:50 | 64.37849 | 22.83726 | 37829 ft | 421 kts | 346° |
| 2026-04-26 08:51 | 64.46201 | 22.79003 | 37831 ft | 420 kts | 346° |
| 2026-04-26 08:52 | 64.51875 | 22.75776 | 37830 ft | 420 kts | 346° |
| 2026-04-26 08:52 | 64.57558 | 22.72702 | 37825 ft | 420 kts | 348° |
| 2026-04-26 08:53 | 64.63230 | 22.69987 | 37826 ft | 420 kts | 348° |
| 2026-04-26 08:53 | 64.68953 | 22.67250 | 37826 ft | 420 kts | 348° |
| 2026-04-26 08:54 | 64.74657 | 22.64499 | 37830 ft | 420 kts | 348° |
| 2026-04-26 08:54 | 64.80362 | 22.61729 | 37831 ft | 420 kts | 348° |
| 2026-04-26 08:55 | 64.86020 | 22.58969 | 37833 ft | 420 kts | 348° |
| 2026-04-26 08:55 | 64.91724 | 22.56173 | 37838 ft | 420 kts | 348° |
| 2026-04-26 08:56 | 64.97421 | 22.53367 | 37847 ft | 420 kts | 348° |
| 2026-04-26 08:56 | 65.03109 | 22.50556 | 37851 ft | 420 kts | 348° |
| 2026-04-26 08:57 | 65.08810 | 22.47726 | 37855 ft | 420 kts | 348° |
| 2026-04-26 08:57 | 65.14493 | 22.44894 | 37856 ft | 420 kts | 348° |
| 2026-04-26 08:58 | 65.20177 | 22.42044 | 37857 ft | 419 kts | 348° |
| 2026-04-26 08:58 | 65.25858 | 22.39184 | 37854 ft | 419 kts | 348° |
| 2026-04-26 08:59 | 65.31557 | 22.36305 | 37854 ft | 419 kts | 348° |
| 2026-04-26 08:59 | 65.37243 | 22.33419 | 37851 ft | 420 kts | 348° |
| 2026-04-26 09:00 | 65.42930 | 22.30518 | 37853 ft | 420 kts | 348° |
| 2026-04-26 09:00 | 65.48620 | 22.27603 | 37849 ft | 419 kts | 348° |
| 2026-04-26 09:01 | 65.54293 | 22.24686 | 37842 ft | 419 kts | 348° |
| 2026-04-26 09:01 | 65.59996 | 22.21740 | 37839 ft | 420 kts | 348° |
| 2026-04-26 09:02 | 65.65681 | 22.18790 | 37842 ft | 419 kts | 348° |
| 2026-04-26 09:02 | 65.71389 | 22.15812 | 37840 ft | 419 kts | 348° |
| 2026-04-26 09:03 | 65.77062 | 22.12844 | 37844 ft | 419 kts | 348° |
| 2026-04-26 09:03 | 65.82752 | 22.09852 | 37851 ft | 419 kts | 347° |
| 2026-04-26 09:04 | 65.88442 | 22.06843 | 37858 ft | 420 kts | 347° |
| 2026-04-26 09:04 | 65.94152 | 22.03810 | 37858 ft | 420 kts | 347° |
| 2026-04-26 09:05 | 65.99831 | 22.00781 | 37862 ft | 419 kts | 347° |
| 2026-04-26 09:05 | 66.05503 | 21.97742 | 37861 ft | 419 kts | 347° |
| 2026-04-26 09:06 | 66.11209 | 21.94671 | 37858 ft | 420 kts | 347° |
| 2026-04-26 09:06 | 66.16912 | 21.91587 | 37856 ft | 420 kts | 347° |
| 2026-04-26 09:07 | 66.22572 | 21.88509 | 37854 ft | 419 kts | 348° |
| 2026-04-26 09:07 | 66.28259 | 21.85406 | 37853 ft | 418 kts | 348° |
| 2026-04-26 09:08 | 66.33944 | 21.82290 | 37852 ft | 419 kts | 348° |
| 2026-04-26 09:08 | 66.39599 | 21.79176 | 37851 ft | 420 kts | 348° |
| 2026-04-26 09:09 | 66.45258 | 21.76046 | 37847 ft | 419 kts | 348° |
| 2026-04-26 09:09 | 66.50952 | 21.72881 | 37838 ft | 419 kts | 348° |
| 2026-04-26 09:10 | 66.56621 | 21.69717 | 37833 ft | 419 kts | 348° |
| 2026-04-26 09:10 | 66.62269 | 21.66548 | 37822 ft | 418 kts | 348° |
| 2026-04-26 09:11 | 66.67920 | 21.63362 | 37818 ft | 418 kts | 347° |
| 2026-04-26 09:11 | 66.73573 | 21.60159 | 37821 ft | 419 kts | 347° |
| 2026-04-26 09:12 | 66.79280 | 21.56909 | 37821 ft | 420 kts | 348° |
| 2026-04-26 09:12 | 66.84937 | 21.53671 | 37826 ft | 420 kts | 348° |
| 2026-04-26 09:13 | 66.90622 | 21.50407 | 37826 ft | 419 kts | 348° |
| 2026-04-26 09:13 | 66.96283 | 21.47140 | 37829 ft | 418 kts | 348° |
| 2026-04-26 09:14 | 67.01951 | 21.43855 | 37840 ft | 419 kts | 347° |
| 2026-04-26 09:14 | 67.07621 | 21.40552 | 37843 ft | 419 kts | 347° |
| 2026-04-26 09:15 | 67.13293 | 21.37228 | 37838 ft | 420 kts | 347° |
| 2026-04-26 09:15 | 67.18985 | 21.33877 | 37835 ft | 420 kts | 347° |
| 2026-04-26 09:16 | 67.24679 | 21.30506 | 37828 ft | 419 kts | 347° |
| 2026-04-26 09:16 | 67.30320 | 21.27153 | 37823 ft | 419 kts | 347° |
| 2026-04-26 09:17 | 67.35980 | 21.23776 | 37823 ft | 419 kts | 347° |
| 2026-04-26 09:17 | 67.41657 | 21.20372 | 37823 ft | 420 kts | 347° |
| 2026-04-26 09:18 | 67.47329 | 21.16955 | 37830 ft | 420 kts | 347° |
| 2026-04-26 09:18 | 67.53002 | 21.13517 | 37829 ft | 420 kts | 347° |
| 2026-04-26 09:19 | 67.58662 | 21.10069 | 37832 ft | 420 kts | 347° |
| 2026-04-26 09:19 | 67.64364 | 21.06578 | 37832 ft | 420 kts | 347° |
| 2026-04-26 09:20 | 67.70024 | 21.03097 | 37834 ft | 421 kts | 347° |
| 2026-04-26 09:20 | 67.75703 | 20.99589 | 37833 ft | 421 kts | 347° |
| 2026-04-26 09:21 | 67.81386 | 20.96060 | 37829 ft | 421 kts | 347° |
| 2026-04-26 09:21 | 67.87045 | 20.92529 | 37821 ft | 421 kts | 347° |
| 2026-04-26 09:22 | 67.92737 | 20.88959 | 37588 ft | 424 kts | 347° |
| 2026-04-26 09:22 | 67.95573 | 20.87174 | 37026 ft | 425 kts | 346° |
| 2026-04-26 09:22 | 67.98436 | 20.85366 | 36430 ft | 427 kts | 346° |
| 2026-04-26 09:22 | 68.01300 | 20.83551 | 35807 ft | 428 kts | 346° |
| 2026-04-26 09:23 | 68.04185 | 20.81719 | 35182 ft | 429 kts | 346° |
| 2026-04-26 09:23 | 68.07082 | 20.79877 | 34564 ft | 429 kts | 346° |
| 2026-04-26 09:23 | 68.09925 | 20.78065 | 33949 ft | 428 kts | 346° |
| 2026-04-26 09:23 | 68.12840 | 20.76201 | 33304 ft | 428 kts | 346° |
| 2026-04-26 09:24 | 68.15699 | 20.74368 | 32765 ft | 429 kts | 346° |
| 2026-04-26 09:24 | 68.18566 | 20.72525 | 32167 ft | 429 kts | 346° |
| 2026-04-26 09:24 | 68.21446 | 20.70670 | 31517 ft | 424 kts | 346° |
| 2026-04-26 09:24 | 68.24247 | 20.68860 | 30922 ft | 413 kts | 346° |
| 2026-04-26 09:25 | 68.26997 | 20.67078 | 30178 ft | 407 kts | 346° |
| 2026-04-26 09:25 | 68.29729 | 20.65304 | 29525 ft | 406 kts | 347° |
| 2026-04-26 09:25 | 68.32430 | 20.63545 | 29045 ft | 403 kts | 347° |
| 2026-04-26 09:25 | 68.35129 | 20.61783 | 28550 ft | 401 kts | 347° |
| 2026-04-26 09:26 | 68.37817 | 20.60025 | 28001 ft | 401 kts | 347° |
| 2026-04-26 09:26 | 68.40505 | 20.58263 | 27483 ft | 400 kts | 347° |
| 2026-04-26 09:26 | 68.43190 | 20.56497 | 26910 ft | 399 kts | 347° |
| 2026-04-26 09:26 | 68.45878 | 20.54727 | 26383 ft | 397 kts | 347° |
| 2026-04-26 09:27 | 68.48518 | 20.52983 | 25776 ft | 396 kts | 347° |
| 2026-04-26 09:27 | 68.51178 | 20.51222 | 25220 ft | 392 kts | 347° |
| 2026-04-26 09:27 | 68.53785 | 20.49491 | 24688 ft | 388 kts | 347° |
| 2026-04-26 09:27 | 68.56393 | 20.47760 | 24188 ft | 382 kts | 347° |
| 2026-04-26 09:28 | 68.58926 | 20.46073 | 23717 ft | 377 kts | 347° |
| 2026-04-26 09:28 | 68.61463 | 20.44379 | 23249 ft | 371 kts | 347° |
| 2026-04-26 09:28 | 68.63941 | 20.42719 | 22790 ft | 367 kts | 347° |
| 2026-04-26 09:28 | 68.66408 | 20.41065 | 22316 ft | 363 kts | 347° |
| 2026-04-26 09:29 | 68.68813 | 20.39447 | 21840 ft | 359 kts | 347° |
| 2026-04-26 09:29 | 68.71215 | 20.37825 | 21360 ft | 356 kts | 347° |
| 2026-04-26 09:29 | 68.73589 | 20.36220 | 20881 ft | 353 kts | 347° |
| 2026-04-26 09:29 | 68.75980 | 20.34599 | 20394 ft | 350 kts | 346° |
| 2026-04-26 09:30 | 68.78235 | 20.32312 | 19898 ft | 349 kts | 332° |
| 2026-04-26 09:30 | 68.80157 | 20.28407 | 19424 ft | 348 kts | 317° |
| 2026-04-26 09:30 | 68.81731 | 20.23314 | 18956 ft | 347 kts | 310° |
| 2026-04-26 09:30 | 68.83199 | 20.18086 | 18493 ft | 344 kts | 310° |
| 2026-04-26 09:31 | 68.84662 | 20.12820 | 18038 ft | 341 kts | 310° |
| 2026-04-26 09:31 | 68.86080 | 20.07724 | 17597 ft | 338 kts | 310° |
| 2026-04-26 09:31 | 68.87508 | 20.02590 | 17143 ft | 335 kts | 310° |
| 2026-04-26 09:31 | 68.88930 | 19.97472 | 16696 ft | 333 kts | 310° |
| 2026-04-26 09:32 | 68.90327 | 19.92439 | 16259 ft | 330 kts | 310° |
| 2026-04-26 09:32 | 68.91711 | 19.87443 | 15830 ft | 327 kts | 310° |
| 2026-04-26 09:32 | 68.93076 | 19.82510 | 15417 ft | 324 kts | 310° |
| 2026-04-26 09:32 | 68.94526 | 19.77757 | 14994 ft | 320 kts | 317° |
| 2026-04-26 09:33 | 68.96189 | 19.73855 | 14583 ft | 316 kts | 326° |
| 2026-04-26 09:33 | 68.98055 | 19.70624 | 14173 ft | 312 kts | 331° |
| 2026-04-26 09:33 | 68.99906 | 19.67674 | 13773 ft | 309 kts | 331° |
| 2026-04-26 09:33 | 69.01755 | 19.64750 | 13382 ft | 306 kts | 331° |
| 2026-04-26 09:34 | 69.03593 | 19.61834 | 12996 ft | 303 kts | 331° |
| 2026-04-26 09:34 | 69.05414 | 19.58930 | 12608 ft | 300 kts | 331° |
| 2026-04-26 09:34 | 69.07221 | 19.56035 | 12219 ft | 298 kts | 331° |
| 2026-04-26 09:34 | 69.09004 | 19.53169 | 11838 ft | 296 kts | 330° |
| 2026-04-26 09:35 | 69.10757 | 19.50344 | 11459 ft | 294 kts | 330° |
| 2026-04-26 09:35 | 69.12522 | 19.47494 | 11069 ft | 292 kts | 330° |
| 2026-04-26 09:35 | 69.14269 | 19.44667 | 10687 ft | 290 kts | 330° |
| 2026-04-26 09:35 | 69.16006 | 19.41855 | 10304 ft | 288 kts | 330° |
| 2026-04-26 09:36 | 69.17696 | 19.39094 | 10098 ft | 279 kts | 330° |
| 2026-04-26 09:36 | 69.19326 | 19.36418 | 10021 ft | 265 kts | 330° |
| 2026-04-26 09:36 | 69.20882 | 19.33854 | 9917 ft | 254 kts | 329° |
| 2026-04-26 09:36 | 69.22387 | 19.31369 | 9650 ft | 251 kts | 329° |
| 2026-04-26 09:37 | 69.23882 | 19.28900 | 9312 ft | 250 kts | 329° |
| 2026-04-26 09:37 | 69.25382 | 19.26423 | 8984 ft | 249 kts | 329° |
| 2026-04-26 09:37 | 69.26859 | 19.23979 | 8644 ft | 248 kts | 329° |
| 2026-04-26 09:37 | 69.28339 | 19.21526 | 8317 ft | 247 kts | 329° |
| 2026-04-26 09:38 | 69.29815 | 19.19075 | 8001 ft | 245 kts | 329° |
| 2026-04-26 09:38 | 69.31275 | 19.16645 | 7690 ft | 244 kts | 329° |
| 2026-04-26 09:38 | 69.32736 | 19.14210 | 7367 ft | 243 kts | 329° |
| 2026-04-26 09:38 | 69.34176 | 19.11806 | 7056 ft | 241 kts | 329° |
| 2026-04-26 09:39 | 69.35603 | 19.09418 | 6753 ft | 240 kts | 329° |
| 2026-04-26 09:39 | 69.37031 | 19.07030 | 6621 ft | 234 kts | 329° |
| 2026-04-26 09:39 | 69.38413 | 19.04708 | 6554 ft | 233 kts | 330° |
| 2026-04-26 09:39 | 69.39668 | 19.01994 | 6412 ft | 224 kts | 308° |
| 2026-04-26 09:40 | 69.40286 | 18.98006 | 6157 ft | 223 kts | 284° |
| 2026-04-26 09:40 | 69.40595 | 18.93717 | 5858 ft | 223 kts | 285° |
| 2026-04-26 09:40 | 69.40931 | 18.89450 | 5570 ft | 222 kts | 285° |
| 2026-04-26 09:40 | 69.41272 | 18.85217 | 5428 ft | 221 kts | 285° |
| 2026-04-26 09:41 | 69.41616 | 18.80983 | 5416 ft | 221 kts | 287° |
| 2026-04-26 09:41 | 69.42288 | 18.77218 | 5381 ft | 212 kts | 321° |
| 2026-04-26 09:41 | 69.43639 | 18.75741 | 5406 ft | 215 kts | 359° |
| 2026-04-26 09:41 | 69.45111 | 18.76276 | 5409 ft | 212 kts | 9° |
| 2026-04-26 09:42 | 69.46495 | 18.77210 | 5409 ft | 198 kts | 12° |
| 2026-04-26 09:42 | 69.47804 | 18.78144 | 5296 ft | 194 kts | 12° |
| 2026-04-26 09:42 | 69.49084 | 18.79044 | 5047 ft | 186 kts | 11° |
| 2026-04-26 09:42 | 69.50295 | 18.79876 | 4698 ft | 176 kts | 11° |
| 2026-04-26 09:43 | 69.51459 | 18.80662 | 4360 ft | 166 kts | 11° |
| 2026-04-26 09:43 | 69.52532 | 18.81379 | 4033 ft | 156 kts | 10° |
| 2026-04-26 09:43 | 69.53557 | 18.82060 | 3723 ft | 145 kts | 10° |
| 2026-04-26 09:43 | 69.54506 | 18.82692 | 3448 ft | 136 kts | 10° |
| 2026-04-26 09:44 | 69.55424 | 18.83299 | 3220 ft | 136 kts | 10° |
| 2026-04-26 09:44 | 69.56336 | 18.83903 | 2992 ft | 135 kts | 9° |
| 2026-04-26 09:44 | 69.57242 | 18.84505 | 2762 ft | 135 kts | 10° |
| 2026-04-26 09:44 | 69.58150 | 18.85109 | 2523 ft | 134 kts | 10° |
| 2026-04-26 09:45 | 69.59064 | 18.85717 | 2276 ft | 134 kts | 10° |
| 2026-04-26 09:45 | 69.59963 | 18.86317 | 2029 ft | 133 kts | 11° |
| 2026-04-26 09:45 | 69.60858 | 18.86913 | 1783 ft | 133 kts | 11° |
| 2026-04-26 09:45 | 69.61760 | 18.87514 | 1529 ft | 133 kts | 11° |
| 2026-04-26 09:46 | 69.62655 | 18.88111 | 1284 ft | 132 kts | 11° |
| 2026-04-26 09:46 | 69.63545 | 18.88704 | 1042 ft | 131 kts | 11° |
| 2026-04-26 09:46 | 69.64422 | 18.89288 | 807 ft | 131 kts | 12° |
| 2026-04-26 09:46 | 69.65308 | 18.89879 | 565 ft | 130 kts | 12° |
| 2026-04-26 09:47 | 69.66194 | 18.90470 | 319 ft | 130 kts | 12° |
| 2026-04-26 09:47 | 69.67072 | 18.91032 | 95 ft | 130 kts | 12° |
| 2026-04-26 09:47 | 69.67886 | 18.91597 | 0 ft | 105 kts | 12° |
| 2026-04-26 09:47 | 69.68426 | 18.91954 | -3 ft | 55 kts | 14° |
| 2026-04-26 09:48 | 69.68735 | 18.92101 | -6 ft | 27 kts | 322° |
| 2026-04-26 09:48 | 69.68774 | 18.91869 | -7 ft | 0 kts | 284° |
| 2026-04-26 09:48 | 69.68775 | 18.91846 | -7 ft | 2 kts | 284° |
| 2026-04-26 09:48 | 69.68778 | 18.91790 | -7 ft | 3 kts | 265° |
| 2026-04-26 09:49 | 69.68761 | 18.91718 | -7 ft | 5 kts | 210° |
| 2026-04-26 09:49 | 69.68695 | 18.91662 | -7 ft | 11 kts | 193° |
| 2026-04-26 09:49 | 69.68618 | 18.91612 | -6 ft | 11 kts | 193° |
| 2026-04-26 09:49 | 69.68540 | 18.91559 | -5 ft | 11 kts | 193° |
| 2026-04-26 09:50 | 69.68462 | 18.91507 | -4 ft | 11 kts | 188° |
| 2026-04-26 09:50 | 69.68380 | 18.91499 | -3 ft | 11 kts | 180° |
| 2026-04-26 09:50 | 69.68296 | 18.91475 | -3 ft | 12 kts | 193° |
| 2026-04-26 09:50 | 69.68211 | 18.91418 | -2 ft | 12 kts | 193° |
| 2026-04-26 09:51 | 69.68126 | 18.91362 | -1 ft | 12 kts | 193° |
| 2026-04-26 09:51 | 69.68040 | 18.91306 | -1 ft | 12 kts | 193° |
| 2026-04-26 09:51 | 69.67996 | 18.91219 | 0 ft | 8 kts | 266° |
| 2026-04-26 09:51 | 69.68005 | 18.91062 | -1 ft | 7 kts | 283° |
| 2026-04-26 09:52 | 69.68014 | 18.90954 | -1 ft | 0 kts | 283° |